Flight Track Log - Related Links

Times and Time Zones

All times are in EDT time to prevent confusion due to time zone crossing. See the GJS3706 flight status page for this flight to view local times or setup timezone preferences in your user account.

Time Position Orientation Groundspeed Altitude Reporting Facility
EDT Latitude Longitude Course Direction KTS MPH feet Rate Location/Type
Sat 11:33:27 AM 44.4006 -73.1925 237° Southwest 210 242 5,400  Level Boston Center
Sat 11:34:00 AM 44.3747 -73.6626 253° West  Level FlightAware Approximate
Sat 11:34:27 AM 44.3519 -73.2964 237° Southwest 238 274 8,700  Level Boston Center
Sat 11:35:00 AM 44.3537 -73.7914 259° West  Level FlightAware Approximate
Sat 11:35:27 AM 44.3117 -73.3800 236° Southwest 258 297 10,900  Level Boston Center
Sat 11:36:00 AM 44.3351 -73.9211 259° West  Level FlightAware Approximate
Sat 11:36:27 AM 44.2919 -73.4872 256° West 275 316 12,900  Level Boston Center
Sat 11:37:00 AM 44.3114 -74.0491 255° West  Level FlightAware Approximate
Sat 11:37:27 AM 44.2783 -73.6058 261° West 305 351 14,900  Level Boston Center
Sat 11:38:27 AM 44.2894 -73.7336 277° West 322 371 17,200 1,818 Climbing Boston Center
Sat 11:39:39 AM 44.2964 -73.8614 274° West 329 379 18,900 1,591 Climbing Boston Center
Sat 11:40:39 AM 44.3025 -74.0211 273° West 335 386 20,700 1,409 Climbing Boston Center
Sat 11:41:51 AM 44.2839 -74.1539 259° West 341 392 22,000 1,364 Climbing Boston Center
Sat 11:42:51 AM 44.2544 -74.3153 256° West 355 409 23,700 1,550 Climbing Boston Center
Sat 11:43:51 AM 44.2333 -74.4567 258° West 360 414 25,100 1,400 Climbing Boston Center
Sat 11:44:51 AM 44.2078 -74.5978 256° West 365 420 26,500 1,250 Climbing Boston Center
Sat 11:45:51 AM 44.1842 -74.7389 257° West 376 433 27,600 1,000 Climbing Boston Center
Sat 11:46:51 AM 44.1628 -74.8711 257° West 387 445 28,500 850 Climbing Boston Center
Sat 11:47:51 AM 44.1386 -75.0178 257° West 392 451 29,300 850 Climbing Boston Center
Sat 11:48:51 AM 44.1122 -75.1697 256° West 392 451 30,200 950 Climbing Boston Center
Sat 11:49:51 AM 44.0878 -75.3161 257° West 392 451 31,200 1,000 Climbing Boston Center
Sat 11:50:51 AM 44.0631 -75.4681 257° West 392 451 32,200 1,000 Climbing Boston Center
Sat 11:51:51 AM 44.0361 -75.6142 256° West 392 451 33,200 1,000 Climbing Boston Center
Sat 11:52:51 AM 44.0114 -75.7572 257° West 392 451 34,200 1,000 Climbing Boston Center
Sat 11:53:51 AM 43.9864 -75.9000 256° West 392 451 35,200 900 Climbing Boston Center
Sat 11:54:51 AM 43.9589 -76.0456 255° West 392 451 36,000 400 Climbing Boston Center
Sat 11:55:51 AM 43.9458 -76.1919 263° West 392 451 36,000  Level Boston Center
Sat 11:56:51 AM 43.9306 -76.3411 262° West 392 451 36,000  Level Boston Center
Sat 11:57:51 AM 43.9189 -76.4931 264° West 397 457 36,000  Level Boston Center
Sat 11:58:51 AM 43.9050 -76.6478 263° West 402 463 36,000  Level Boston Center
Sat 11:59:57 AM 43.8667 -76.8167 253° West 420 483 36,000  Level Toronto Center
Sat 12:00:57 PM 43.8500 -76.9667 261° West 420 483 36,000  Level Toronto Center
Sat 12:01:57 PM 43.8333 -77.1167 261° West 420 483 36,000  Level Toronto Center
Sat 12:02:57 PM 43.8167 -77.2833 262° West 410 472 36,000  Level Toronto Center
Sat 12:03:57 PM 43.8167 -77.4333 270° West 410 472 36,000  Level Toronto Center
Sat 12:04:57 PM 43.8000 -77.6000 262° West 410 472 36,000  Level Toronto Center
Sat 12:05:57 PM 43.7833 -77.7667 262° West 410 472 36,000  Level Toronto Center
Sat 12:06:57 PM 43.7667 -77.9000 260° West 410 472 36,000  Level Toronto Center
Sat 12:07:57 PM 43.7500 -78.0667 262° West 410 472 36,000  Level Toronto Center
Sat 12:08:57 PM 43.7167 -78.2333 255° West 410 472 36,000  Level Toronto Center
Sat 12:09:57 PM 43.7000 -78.3833 261° West 410 472 36,000  Level Toronto Center
Sat 12:10:57 PM 43.7000 -78.5333 270° West 410 472 36,000  Level Toronto Center
Sat 12:11:57 PM 43.6833 -78.6833 261° West 400 460 36,000  Level Toronto Center
Sat 12:12:57 PM 43.6667 -78.8333 261° West 390 449 36,000  Level Toronto Center
Sat 12:13:57 PM 43.6500 -78.9667 260° West 380 437 36,000  Level Toronto Center
Sat 12:14:57 PM 43.6500 -79.1333 270° West 390 449 36,000  Level Toronto Center
Sat 12:15:57 PM 43.6333 -79.2667 260° West 390 449 36,000  Level Toronto Center
Sat 12:16:57 PM 43.6167 -79.4333 262° West 400 460 36,000  Level Toronto Center
Sat 12:17:57 PM 43.6000 -79.5833 261° West 400 460 36,000  Level Toronto Center
Sat 12:18:57 PM 43.5833 -79.7333 261° West 390 449 36,000  Level Toronto Center
Sat 12:19:57 PM 43.5667 -79.8667 260° West 390 449 36,000  Level Toronto Center
Sat 12:20:57 PM 43.5500 -80.0167 261° West 380 437 36,000  Level Toronto Center
Sat 12:21:57 PM 43.5333 -80.1667 261° West 380 437 36,000  Level Toronto Center
Sat 12:22:57 PM 43.5167 -80.3167 261° West 380 437 36,000  Level Toronto Center
Sat 12:23:57 PM 43.5167 -80.4667 270° West 390 449 36,000  Level Toronto Center
Sat 12:24:57 PM 43.5000 -80.6000 260° West 390 449 36,000  Level Toronto Center
Sat 12:25:57 PM 43.4833 -80.7333 260° West 390 449 36,000  Level Toronto Center
Sat 12:26:57 PM 43.4500 -80.9000 255° West 380 437 36,000  Level Toronto Center
Sat 12:27:57 PM 43.4333 -81.0333 260° West 370 426 36,000  Level Toronto Center
Sat 12:28:57 PM 43.4167 -81.1667 260° West 370 426 36,000  Level Toronto Center
Sat 12:29:57 PM 43.4167 -81.3167 270° West 370 426 36,000  Level Toronto Center
Sat 12:30:57 PM 43.4000 -81.4667 261° West 370 426 36,000  Level Toronto Center
Sat 12:31:57 PM 43.3833 -81.6000 260° West 370 426 36,000  Level Toronto Center
Sat 12:32:57 PM 43.3667 -81.7167 259° West 370 426 36,000  Level Toronto Center
Sat 12:33:57 PM 43.3500 -81.8833 262° West 370 426 36,000  Level Toronto Center
Sat 12:34:57 PM 43.3167 -82.0167 251° West 370 426 36,000  Level Toronto Center
Sat 12:35:57 PM 43.3167 -82.1500 270° West 370 426 36,000  Level Toronto Center
Sat 12:36:57 PM 43.3000 -82.2833 260° West 370 426 36,000  Level Toronto Center
Sat 12:37:57 PM 43.2833 -82.4333 261° West 370 426 36,000  Level Toronto Center
Sat 12:38:57 PM 43.2667 -82.5667 260° West 370 426 36,000  Level Toronto Center
Sat 12:39:57 PM 43.2333 -82.7000 251° West 370 426 36,000  Level Toronto Center
Sat 12:40:57 PM 43.2000 -82.8333 251° West 370 426 36,000  Level Toronto Center
Sat 12:42:10 PM 43.1744 -83.0086 259° West 373 429 36,000  Level Cleveland Center
Sat 12:43:10 PM 43.1383 -83.1353 249° West 378 435 36,000 -350 Level Cleveland Center
Sat 12:44:10 PM 43.1022 -83.2675 250° West 378 435 35,300 -850 Descending Cleveland Center
Sat 12:45:10 PM 43.0658 -83.3908 248° West 365 420 34,300 -1,000 Descending Cleveland Center
Sat 12:46:10 PM 43.0292 -83.5200 249° West 365 420 33,300 -1,000 Descending Cleveland Center
Sat 12:47:10 PM 42.9992 -83.6322 250° West 365 420 32,300 -650 Descending Cleveland Center
Sat 12:48:10 PM 42.9647 -83.7581 250° West 365 420 32,000 -150 Descending Cleveland Center
Sat 12:49:10 PM 42.9525 -83.8908 263° West 358 412 32,000  Level Cleveland Center
Sat 12:50:10 PM 42.9381 -84.0261 262° West 358 412 32,000  Level Cleveland Center
Sat 12:51:10 PM 42.9278 -84.1619 264° West 358 412 32,000  Level Cleveland Center
Sat 12:52:10 PM 42.9133 -84.2942 262° West 358 412 32,000  Level Cleveland Center
Sat 12:53:08 PM 42.9000 -84.4389 263° West 361 415 32,000  Level Chicago Center
Sat 12:54:10 PM 42.8856 -84.5747 262° West 362 417 32,000  Level Chicago Center
Sat 12:55:12 PM 42.8719 -84.7083 262° West 359 413 32,000  Level Chicago Center
Sat 12:56:13 PM 42.8578 -84.8428 262° West 359 413 32,000  Level Chicago Center
Sat 12:57:15 PM 42.8433 -84.9772 262° West 359 413 32,000  Level Chicago Center
Sat 12:58:17 PM 42.8289 -85.1106 262° West 356 410 32,000 -387 Level Chicago Center
Sat 12:59:19 PM 42.8144 -85.2442 262° West 357 411 31,200 -1,122 Descending Chicago Center
Sat 01:00:20 PM 42.8006 -85.3772 262° West 356 410 29,700 -1,610 Descending Chicago Center
Sat 01:01:22 PM 42.7803 -85.5344 260° West 351 404 27,900 -1,597 Descending Chicago Center
Sat 01:02:24 PM 42.7558 -85.6647 256° West 353 406 26,400 -1,512 Descending Chicago Center
Sat 01:03:25 PM 42.7317 -85.7981 256° West 359 413 24,800 -1,512 Descending Chicago Center
Sat 01:04:27 PM 42.7086 -85.9319 257° West 361 415 23,300 -1,452 Descending Chicago Center
Sat 01:05:29 PM 42.6850 -86.0606 256° West 352 405 21,800 -1,317 Descending Chicago Center
Sat 01:06:30 PM 42.6617 -86.1883 256° West 347 399 20,600 -1,122 Descending Chicago Center
Sat 01:07:32 PM 42.6386 -86.3114 256° West 340 391 19,500 -1,065 Descending Chicago Center
Sat 01:08:34 PM 42.6156 -86.4333 256° West 334 384 18,400 -1,024 Descending Chicago Center
Sat 01:09:35 PM 42.5917 -86.5544 255° West 333 383 17,400 -1,122 Descending Chicago Center
Sat 01:10:37 PM 42.5650 -86.6986 256° West 329 379 16,100 -1,452 Descending Chicago Center
Sat 01:11:39 PM 42.5383 -86.8106 252° West 318 366 14,400 -1,597 Descending Chicago Center
Sat 01:12:41 PM 42.5072 -86.9222 249° West 317 365 12,800 -1,561 Descending Chicago Center
Sat 01:13:42 PM 42.4781 -87.0311 250° West 310 357 11,200 -1,220 Descending Chicago Center
Sat 01:14:44 PM 42.4508 -87.1281 249° West 284 327 10,300 -919 Descending Chicago Center
Sat 01:15:46 PM 42.4267 -87.2139 249° West 252 290 9,300 -823 Descending Chicago Center
Sat 01:16:48 PM 42.4033 -87.3014 250° West 248 285 8,600 -1,210 Descending Chicago Center
Sat 01:17:50 PM 42.3747 -87.4003 249° West 251 289 6,800 -1,268 Descending Chicago Center
Sat 01:18:51 PM 42.3494 -87.4839 248° West 243 280 6,000 -829 Descending Chicago Center
Sat 01:19:53 PM 42.2725 -87.4858 181° South 266 306 5,100 -484 Descending Chicago Center
Sat 01:20:55 PM 42.1975 -87.4689 170° South 271 312 5,000 -194 Descending Chicago Center
Sat 01:21:57 PM 42.1244 -87.4539 171° South 268 308 4,700 -484 Descending Chicago Center
Sat 01:22:59 PM 42.0583 -87.4356 168° South 255 293 4,000 -339 Descending Chicago Center
Sat 01:24:01 PM 42.0144 -87.4656 207° Southwest 235 270 4,000  Level Chicago Center
Sat 01:25:11 PM 42.0000 -87.5500 257° West 162 186 4,000  Level Chicago TRACON
Sat 01:26:05 PM 42.0000 -87.6000 270° West 164 189 4,000  Level Chicago TRACON
Sat 01:27:05 PM 42.0000 -87.6667 270° West 166 191 4,000  Level Chicago TRACON

Login

Don't have an account? Register now (free) for customized features, flight alerts, and more!